createdAt,value
2017-03-30T00:00:19.098Z,51.56
2017-03-30T00:01:19.113Z,51.65
2017-03-30T00:02:19.177Z,51.56
2017-03-30T00:03:19.149Z,51.65
2017-03-30T00:04:19.187Z,51.56
2017-03-30T00:05:22.220Z,51.46
2017-03-30T00:06:19.208Z,51.36
2017-03-30T00:07:19.225Z,51.75
2017-03-30T00:08:18.945Z,51.36
2017-03-30T00:09:19.289Z,51.46
2017-03-30T00:10:19.288Z,51.36
2017-03-30T00:11:19.305Z,51.36
2017-03-30T00:12:19.326Z,51.46
2017-03-30T00:13:19.345Z,51.56
2017-03-30T00:14:19.371Z,51.56
2017-03-30T00:15:19.383Z,51.56
2017-03-30T00:16:19.401Z,51.56
2017-03-30T00:17:19.424Z,51.36
2017-03-30T00:18:19.455Z,51.56
2017-03-30T00:19:19.467Z,51.65
2017-03-30T00:20:19.489Z,51.75
2017-03-30T00:21:19.503Z,51.75
2017-03-30T00:22:19.519Z,51.36
2017-03-30T00:23:19.545Z,51.75
2017-03-30T00:24:19.555Z,51.65
2017-03-30T00:25:19.580Z,52.03
2017-03-30T00:26:19.597Z,51.84
2017-03-30T00:27:19.616Z,51.93
2017-03-30T00:28:19.631Z,51.65
2017-03-30T00:29:19.655Z,52.13
2017-03-30T00:30:19.673Z,52.13
2017-03-30T00:31:19.692Z,51.93
2017-03-30T00:32:19.712Z,51.93
2017-03-30T00:33:19.731Z,51.93
2017-03-30T00:34:19.746Z,51.93
2017-03-30T00:35:19.771Z,52.22
2017-03-30T00:36:19.789Z,52.13
2017-03-30T00:37:19.806Z,51.93
2017-03-30T00:38:19.826Z,52.22
2017-03-30T00:39:19.845Z,52.13
2017-03-30T00:40:19.864Z,52.13
2017-03-30T00:41:19.888Z,52.22
2017-03-30T00:42:19.901Z,52.13
2017-03-30T00:43:19.923Z,52.13
2017-03-30T00:44:19.631Z,52.32
2017-03-30T00:45:19.960Z,52.42
2017-03-30T00:46:19.994Z,52.22
2017-03-30T00:47:19.692Z,52.61
2017-03-30T00:48:20.020Z,52.51
2017-03-30T00:49:20.037Z,52.51
2017-03-30T00:50:20.061Z,52.51
2017-03-30T00:51:20.074Z,52.51
2017-03-30T00:52:19.784Z,52.42
2017-03-30T00:53:20.115Z,52.13
2017-03-30T00:54:20.136Z,52.99
2017-03-30T00:55:20.171Z,52.7
2017-03-30T00:56:19.864Z,52.51
2017-03-30T00:57:20.203Z,52.51
2017-03-30T00:58:20.215Z,52.51
2017-03-30T00:59:20.238Z,52.51
2017-03-30T01:00:20.248Z,52.61
2017-03-30T01:01:19.971Z,52.61
2017-03-30T01:02:20.296Z,52.7
2017-03-30T01:03:20.308Z,52.61
2017-03-30T01:04:20.328Z,52.51
2017-03-30T01:05:20.348Z,52.8
2017-03-30T01:06:20.368Z,53.08
2017-03-30T01:07:20.074Z,52.61
2017-03-30T01:08:20.095Z,53.08
2017-03-30T01:09:20.422Z,52.89
2017-03-30T01:10:20.495Z,52.99
2017-03-30T01:11:20.464Z,52.99
2017-03-30T01:12:20.487Z,52.99
2017-03-30T01:13:20.501Z,52.89
2017-03-30T01:14:20.518Z,52.89
2017-03-30T01:15:20.538Z,53.08
2017-03-30T01:16:20.562Z,52.99
2017-03-30T01:17:20.579Z,52.99
2017-03-30T01:18:20.282Z,52.7
2017-03-30T01:19:20.304Z,52.99
2017-03-30T01:20:20.641Z,53.28
2017-03-30T01:21:20.657Z,52.89
2017-03-30T01:22:20.676Z,52.8
2017-03-30T01:23:20.695Z,52.89
2017-03-30T01:24:20.718Z,52.99
2017-03-30T01:25:20.732Z,53.28
2017-03-30T01:26:20.778Z,53.18
2017-03-30T01:27:20.777Z,52.96
2017-03-30T01:28:20.790Z,52.89
2017-03-30T01:29:20.812Z,53.18
2017-03-30T01:30:20.522Z,53.28
2017-03-30T01:31:20.850Z,53.44
2017-03-30T01:32:20.961Z,53.08
2017-03-30T01:33:20.890Z,52.99
2017-03-30T01:34:20.914Z,52.7
2017-03-30T01:35:20.924Z,52.77
2017-03-30T01:36:20.943Z,53.53
2017-03-30T01:37:20.968Z,53.34
2017-03-30T01:38:20.980Z,53.34
2017-03-30T01:39:21.015Z,53.44
2017-03-30T01:40:21.017Z,53.25
2017-03-30T01:41:21.039Z,53.37
2017-03-30T01:42:21.060Z,53.82
2017-03-30T01:43:21.076Z,53.06
2017-03-30T01:44:21.097Z,53.82
2017-03-30T01:45:21.116Z,52.96
2017-03-30T01:46:21.136Z,53.75
2017-03-30T01:47:21.163Z,53.44
2017-03-30T01:48:20.858Z,53.28
2017-03-30T01:49:20.878Z,53.34
2017-03-30T01:50:21.219Z,53.44
2017-03-30T01:51:21.225Z,53.44
2017-03-30T01:52:20.937Z,53.44
2017-03-30T01:53:21.271Z,53.34
2017-03-30T01:54:21.408Z,53.06
2017-03-30T01:55:21.305Z,53.44
2017-03-30T01:56:21.322Z,53.16
2017-03-30T01:57:21.342Z,53.63
2017-03-30T01:58:21.359Z,53.92
2017-03-30T01:59:21.378Z,53.44
2017-03-30T02:00:21.402Z,53.44
2017-03-30T02:01:21.421Z,53.34
2017-03-30T02:02:21.442Z,53.53
2017-03-30T02:03:21.466Z,53.92
2017-03-30T02:04:21.477Z,53.73
2017-03-30T02:05:21.497Z,54.21
2017-03-30T02:06:21.513Z,54.11
2017-03-30T02:07:21.535Z,53.92
2017-03-30T02:08:21.553Z,53.94
2017-03-30T02:09:21.257Z,53.73
2017-03-30T02:10:21.593Z,53.82
2017-03-30T02:11:21.606Z,53.82
2017-03-30T02:12:21.629Z,53.73
2017-03-30T02:13:21.643Z,53.92
2017-03-30T02:14:21.665Z,53.92
2017-03-30T02:15:21.685Z,53.44
2017-03-30T02:16:21.704Z,53.73
2017-03-30T02:17:21.450Z,53.44
2017-03-30T02:18:21.743Z,53.53
2017-03-30T02:19:21.781Z,53.44
2017-03-30T02:20:21.778Z,53.44
2017-03-30T02:21:21.802Z,53.63
2017-03-30T02:22:21.818Z,53.63
2017-03-30T02:23:21.838Z,53.53
2017-03-30T02:24:21.855Z,53.92
2017-03-30T02:25:21.875Z,54.02
2017-03-30T02:26:21.892Z,53.25
2017-03-30T02:27:21.913Z,53.82
2017-03-30T02:28:21.934Z,53.06
2017-03-30T02:29:21.952Z,53.63
2017-03-30T02:30:21.991Z,53.25
2017-03-30T02:31:21.992Z,53.53
2017-03-30T02:32:22.008Z,53.16
2017-03-30T02:33:22.029Z,53.63
2017-03-30T02:34:22.050Z,53.44
2017-03-30T02:35:22.070Z,53.63
2017-03-30T02:36:22.085Z,53.92
2017-03-30T02:37:22.104Z,54.02
2017-03-30T02:38:22.118Z,53.92
2017-03-30T02:39:22.138Z,53.92
2017-03-30T02:40:22.159Z,54.02
2017-03-30T02:41:22.181Z,53.92
2017-03-30T02:42:22.200Z,54.49
2017-03-30T02:43:22.215Z,54.59
2017-03-30T02:44:22.236Z,53.53
2017-03-30T02:45:22.254Z,53.73
2017-03-30T02:46:21.960Z,53.63
2017-03-30T02:47:21.980Z,54.3
2017-03-30T02:48:22.309Z,54.39
2017-03-30T02:49:22.330Z,54.21
2017-03-30T02:50:22.351Z,54.3
2017-03-30T02:51:22.369Z,54.3
2017-03-30T02:52:22.387Z,54.21
2017-03-30T02:53:22.406Z,53.63
2017-03-30T02:54:22.428Z,54.11
2017-03-30T02:55:22.447Z,54.02
2017-03-30T02:56:22.463Z,54.68
2017-03-30T02:57:22.482Z,53.53
2017-03-30T02:58:22.501Z,54.3
2017-03-30T02:59:22.533Z,53.82
2017-03-30T03:00:22.226Z,54.11
2017-03-30T03:01:22.245Z,53.63
2017-03-30T03:02:22.263Z,54.21
2017-03-30T03:03:22.595Z,53.73
2017-03-30T03:04:22.303Z,54.21
2017-03-30T03:05:22.634Z,54.3
2017-03-30T03:06:22.342Z,54.21
2017-03-30T03:07:22.674Z,53.92
2017-03-30T03:08:22.689Z,54.11
2017-03-30T03:09:22.710Z,54.3
2017-03-30T03:10:22.729Z,53.53
2017-03-30T03:11:22.752Z,54.39
2017-03-30T03:12:22.765Z,54.21
2017-03-30T03:13:22.474Z,53.73
2017-03-30T03:14:22.806Z,54.21
2017-03-30T03:15:22.821Z,54.11
2017-03-30T03:16:22.845Z,54.21
2017-03-30T03:17:22.863Z,54.49
2017-03-30T03:18:22.886Z,54.59
2017-03-30T03:19:22.900Z,53.92
2017-03-30T03:20:22.917Z,54.68
2017-03-30T03:21:22.935Z,54.59
2017-03-30T03:22:22.952Z,54.11
2017-03-30T03:23:22.973Z,54.21
2017-03-30T03:24:22.991Z,53.73
2017-03-30T03:25:23.013Z,53.73
2017-03-30T03:26:23.032Z,54.3
2017-03-30T03:27:23.047Z,54.3
2017-03-30T03:28:23.068Z,54.59
2017-03-30T03:29:23.086Z,54.78
2017-03-30T03:30:23.110Z,54.39
2017-03-30T03:31:23.125Z,54.88
2017-03-30T03:32:23.141Z,54.11
2017-03-30T03:33:23.162Z,54.78
2017-03-30T03:34:23.186Z,54.21
2017-03-30T03:35:23.206Z,54.59
2017-03-30T03:36:23.219Z,54.78
2017-03-30T03:37:23.329Z,54.3
2017-03-30T03:38:23.267Z,54.39
2017-03-30T03:39:23.273Z,54.3
2017-03-30T03:40:23.299Z,54.78
2017-03-30T03:41:23.312Z,54.88
2017-03-30T03:42:23.335Z,54.49
2017-03-30T03:43:23.350Z,54.49
2017-03-30T03:44:23.368Z,54.78
2017-03-30T03:45:23.394Z,54.49
2017-03-30T03:46:23.408Z,54.39
2017-03-30T03:47:23.429Z,54.78
2017-03-30T03:48:23.445Z,54.78
2017-03-30T03:49:23.462Z,54.88
2017-03-30T03:50:23.169Z,54.39
2017-03-30T03:51:23.504Z,54.68
2017-03-30T03:52:23.521Z,54.59
2017-03-30T03:53:23.541Z,55.07
2017-03-30T03:54:23.561Z,54.59
2017-03-30T03:55:23.576Z,54.49
2017-03-30T03:56:23.595Z,55.07
2017-03-30T03:57:23.615Z,55.07
2017-03-30T03:58:23.636Z,55.07
2017-03-30T03:59:23.651Z,55.35
2017-03-30T04:00:23.669Z,55.07
2017-03-30T04:01:23.690Z,55.07
2017-03-30T04:02:23.708Z,54.97
2017-03-30T04:03:23.730Z,54.97
2017-03-30T04:04:23.749Z,54.97
2017-03-30T04:05:23.766Z,54.88
2017-03-30T04:06:23.787Z,55.64
2017-03-30T04:07:23.802Z,55.26
2017-03-30T04:08:23.829Z,55.45
2017-03-30T04:09:23.840Z,55.07
2017-03-30T04:10:23.863Z,55.64
2017-03-30T04:11:23.881Z,55.54
2017-03-30T04:12:23.896Z,54.97
2017-03-30T04:13:23.925Z,55.07
2017-03-30T04:14:23.935Z,55.45
2017-03-30T04:15:23.955Z,55.45
2017-03-30T04:16:23.972Z,55.35
2017-03-30T04:17:23.992Z,55.74
2017-03-30T04:18:24.009Z,55.74
2017-03-30T04:19:24.030Z,55.45
2017-03-30T04:20:24.046Z,54.97
2017-03-30T04:21:24.075Z,55.26
2017-03-30T04:22:24.121Z,55.35
2017-03-30T04:23:24.107Z,55.64
2017-03-30T04:24:24.123Z,55.74
2017-03-30T04:25:24.153Z,55.83
2017-03-30T04:26:24.168Z,55.35
2017-03-30T04:27:24.188Z,55.83
2017-03-30T04:28:24.202Z,55.26
2017-03-30T04:29:24.220Z,55.26
2017-03-30T04:30:24.265Z,55.16
2017-03-30T04:31:23.945Z,55.35
2017-03-30T04:32:23.964Z,55.26
2017-03-30T04:33:23.980Z,55.64
2017-03-30T04:34:24.315Z,55.26
2017-03-30T04:35:24.334Z,55.07
2017-03-30T04:36:24.352Z,55.54
2017-03-30T04:37:24.373Z,55.26
2017-03-30T04:38:24.076Z,55.16
2017-03-30T04:39:24.433Z,55.26
2017-03-30T04:40:24.114Z,55.26
2017-03-30T04:41:24.444Z,54.78
2017-03-30T04:42:24.469Z,54.97
2017-03-30T04:43:24.491Z,55.26
2017-03-30T04:44:24.645Z,54.78
2017-03-30T04:45:24.519Z,55.07
2017-03-30T04:46:24.540Z,54.78
2017-03-30T04:47:24.561Z,54.88
2017-03-30T04:48:24.576Z,55.54
2017-03-30T04:49:24.599Z,54.88
2017-03-30T04:50:24.615Z,55.45
2017-03-30T04:51:24.630Z,55.54
2017-03-30T04:52:24.653Z,54.97
2017-03-30T04:53:24.674Z,55.54
2017-03-30T04:54:24.725Z,55.45
2017-03-30T04:55:24.708Z,55.54
2017-03-30T04:56:24.748Z,55.45
2017-03-30T04:57:24.758Z,55.07
2017-03-30T04:58:24.822Z,55.23
2017-03-30T04:59:24.993Z,54.78
2017-03-30T05:00:24.839Z,55.45
2017-03-30T05:01:24.820Z,55.54
2017-03-30T05:02:24.838Z,55.35
2017-03-30T05:03:24.924Z,54.94
2017-03-30T05:04:24.899Z,55.45
2017-03-30T05:05:24.899Z,55.54
2017-03-30T05:06:24.911Z,54.88
2017-03-30T05:07:24.968Z,54.88
2017-03-30T05:08:24.950Z,55.35
2017-03-30T05:09:24.966Z,54.88
2017-03-30T05:10:24.674Z,54.97
2017-03-30T05:11:25.005Z,55.26
2017-03-30T05:12:25.026Z,55.23
2017-03-30T05:13:25.042Z,54.78
2017-03-30T05:14:25.066Z,55.26
2017-03-30T05:15:25.079Z,54.97
2017-03-30T05:16:25.114Z,55.83
2017-03-30T05:17:24.811Z,55.93
2017-03-30T05:18:25.168Z,55.13
2017-03-30T05:19:25.203Z,55.45
2017-03-30T05:20:25.192Z,54.85
2017-03-30T05:21:24.909Z,55.26
2017-03-30T05:22:25.248Z,55.04
2017-03-30T05:23:25.303Z,55.45
2017-03-30T05:24:25.246Z,55.45
2017-03-30T05:25:25.269Z,55.54
2017-03-30T05:26:25.285Z,54.49
2017-03-30T05:27:25.006Z,54.88
2017-03-30T05:28:25.338Z,54.88
2017-03-30T05:29:25.343Z,54.88
2017-03-30T05:30:25.361Z,54.59
2017-03-30T05:31:25.374Z,55.52
2017-03-30T05:32:25.396Z,54.97
2017-03-30T05:33:25.416Z,54.97
2017-03-30T05:34:25.433Z,54.78
2017-03-30T05:35:25.486Z,55.07
2017-03-30T05:36:25.471Z,55.64
2017-03-30T05:37:25.491Z,54.97
2017-03-30T05:38:25.508Z,55.54
2017-03-30T05:39:25.529Z,55.07
2017-03-30T05:40:25.546Z,55.07
2017-03-30T05:41:25.567Z,55.35
2017-03-30T05:42:25.589Z,55.35
2017-03-30T05:43:25.602Z,55.16
2017-03-30T05:44:25.622Z,55.35
2017-03-30T05:45:25.679Z,55.07
2017-03-30T05:46:25.749Z,55.45
2017-03-30T05:47:25.679Z,55.26
2017-03-30T05:48:25.698Z,55.07
2017-03-30T05:49:25.598Z,54.97
2017-03-30T05:50:25.918Z,55.16
2017-03-30T05:51:25.924Z,55.26
2017-03-30T05:52:25.933Z,54.97
2017-03-30T05:53:25.942Z,54.97
2017-03-30T05:54:25.812Z,54.88
2017-03-30T05:55:25.825Z,55.16
2017-03-30T05:56:25.847Z,55.26
2017-03-30T05:57:25.864Z,54.88
2017-03-30T05:58:25.886Z,54.97
2017-03-30T05:59:25.902Z,55.07
2017-03-30T06:00:25.922Z,55.07
2017-03-30T06:01:25.629Z,55.16
2017-03-30T06:02:25.960Z,55.07
2017-03-30T06:03:25.973Z,55.35
2017-03-30T06:04:25.996Z,55.07
2017-03-30T06:05:26.013Z,55.45
2017-03-30T06:06:25.748Z,54.59
2017-03-30T06:07:26.056Z,55.45
2017-03-30T06:08:26.070Z,55.54
2017-03-30T06:09:26.090Z,55.07
2017-03-30T06:10:26.112Z,55.64
2017-03-30T06:11:26.127Z,54.88
2017-03-30T06:12:26.146Z,55.35
2017-03-30T06:13:26.163Z,55.16
2017-03-30T06:14:26.181Z,55.35
2017-03-30T06:15:26.552Z,54.97
2017-03-30T06:16:28.389Z,55.16
2017-03-30T06:17:26.255Z,54.97
2017-03-30T06:18:26.486Z,55.35
2017-03-30T06:19:27.909Z,55.64
2017-03-30T06:20:26.787Z,55.45
2017-03-30T06:21:26.318Z,55.35
2017-03-30T06:22:26.339Z,55.83
2017-03-30T06:23:26.356Z,55.74
2017-03-30T06:24:26.374Z,55.74
2017-03-30T06:25:26.393Z,55.35
2017-03-30T06:26:26.409Z,55.83
2017-03-30T06:27:26.430Z,55.35
2017-03-30T06:28:26.457Z,54.97
2017-03-30T06:29:26.476Z,55.54
2017-03-30T06:30:26.203Z,55.35
2017-03-30T06:31:26.191Z,55.64
2017-03-30T06:32:26.523Z,56.31
2017-03-30T06:33:26.539Z,56.02
2017-03-30T06:34:26.246Z,56.12
2017-03-30T06:35:26.265Z,55.93
2017-03-30T06:36:26.596Z,56.12
2017-03-30T06:37:26.619Z,56.12
2017-03-30T06:38:26.635Z,55.93
2017-03-30T06:39:26.651Z,55.93
2017-03-30T06:40:26.674Z,55.83
2017-03-30T06:41:26.689Z,56.05
2017-03-30T06:42:26.708Z,55.93
2017-03-30T06:43:26.728Z,55.93
2017-03-30T06:44:26.749Z,56.34
2017-03-30T06:45:26.773Z,55.83
2017-03-30T06:46:26.786Z,56.12
2017-03-30T06:47:26.806Z,55.96
2017-03-30T06:48:26.825Z,56.24
2017-03-30T06:49:26.840Z,56.24
2017-03-30T06:50:26.868Z,56.24
2017-03-30T06:51:26.881Z,56.24
2017-03-30T06:52:26.900Z,56.15
2017-03-30T06:53:26.917Z,55.86
2017-03-30T06:54:26.937Z,55.86
2017-03-30T06:55:26.954Z,56.43
2017-03-30T06:56:26.977Z,55.96
2017-03-30T06:57:26.995Z,56.15
2017-03-30T06:58:27.010Z,56.05
2017-03-30T06:59:27.031Z,55.96
2017-03-30T07:00:27.051Z,56.34
2017-03-30T07:01:27.071Z,56.15
2017-03-30T07:02:27.087Z,55.86
2017-03-30T07:03:27.108Z,55.38
2017-03-30T07:04:27.127Z,55.67
2017-03-30T07:05:26.837Z,55.57
2017-03-30T07:06:27.164Z,55.67
2017-03-30T07:07:27.185Z,55.57
2017-03-30T07:08:27.202Z,55.57
2017-03-30T07:09:27.224Z,55.47
2017-03-30T07:10:27.238Z,55.96
2017-03-30T07:11:27.263Z,55.67
2017-03-30T07:12:27.280Z,56.05
2017-03-30T07:13:27.300Z,55.67
2017-03-30T07:14:27.318Z,55.76
2017-03-30T07:15:27.339Z,55
2017-03-30T07:16:27.358Z,55.96
2017-03-30T07:17:27.376Z,55.96
2017-03-30T07:18:27.397Z,55.29
2017-03-30T07:19:27.417Z,55.96
2017-03-30T07:20:27.431Z,55.76
2017-03-30T07:21:27.451Z,55.47
2017-03-30T07:22:27.475Z,55.47
2017-03-30T07:23:27.490Z,55.47
2017-03-30T07:24:27.711Z,55.76
2017-03-30T07:25:27.527Z,55.86
2017-03-30T07:26:27.547Z,56.05
2017-03-30T07:27:27.252Z,55.57
2017-03-30T07:28:27.584Z,55.47
2017-03-30T07:29:27.602Z,55.86
2017-03-30T07:30:27.624Z,55.47
2017-03-30T07:31:27.641Z,55.1
2017-03-30T07:32:27.663Z,55.47
2017-03-30T07:33:27.679Z,55.38
2017-03-30T07:34:27.698Z,55.19
2017-03-30T07:35:27.721Z,54.9
2017-03-30T07:36:27.742Z,55.31
2017-03-30T07:37:27.759Z,55.31
2017-03-30T07:38:27.774Z,55.31
2017-03-30T07:39:27.798Z,55.6
2017-03-30T07:40:27.815Z,55.41
2017-03-30T07:41:27.837Z,55.12
2017-03-30T07:42:27.542Z,55.02
2017-03-30T07:43:27.873Z,55.02
2017-03-30T07:44:27.888Z,55.31
2017-03-30T07:45:27.914Z,55.41
2017-03-30T07:46:27.931Z,55.22
2017-03-30T07:47:27.963Z,55.02
2017-03-30T07:48:27.971Z,55.12
2017-03-30T07:49:27.988Z,55.12
2017-03-30T07:50:28.007Z,55.31
2017-03-30T07:51:28.028Z,54.93
2017-03-30T07:52:28.046Z,55.73
2017-03-30T07:53:28.063Z,55.22
2017-03-30T07:54:28.098Z,55.15
2017-03-30T07:55:28.102Z,54.57
2017-03-30T07:56:28.127Z,54.67
2017-03-30T07:57:28.142Z,54.19
2017-03-30T07:58:28.166Z,54.96
2017-03-30T07:59:28.182Z,54.96
2017-03-30T08:00:28.204Z,54.77
2017-03-30T08:01:28.221Z,54.86
2017-03-30T08:02:28.244Z,55.05
2017-03-30T08:03:28.262Z,54.38
2017-03-30T08:04:28.281Z,54.19
2017-03-30T08:05:28.300Z,54.1
2017-03-30T08:06:28.318Z,54.67
2017-03-30T08:07:28.339Z,53.81
2017-03-30T08:08:28.359Z,54.28
2017-03-30T08:09:28.378Z,54.86
2017-03-30T08:10:28.395Z,54.12
2017-03-30T08:11:28.422Z,54.28
2017-03-30T08:12:28.434Z,54.7
2017-03-30T08:13:28.477Z,54.7
2017-03-30T08:14:28.476Z,54.5
2017-03-30T08:15:28.496Z,54.7
2017-03-30T08:16:28.516Z,53.55
2017-03-30T08:17:28.537Z,54.7
2017-03-30T08:18:28.761Z,54.32
2017-03-30T08:19:28.572Z,54.12
2017-03-30T08:20:28.285Z,53.36
2017-03-30T08:21:28.302Z,53.36
2017-03-30T08:22:28.323Z,53.36
2017-03-30T08:23:28.653Z,53.16
2017-03-30T08:24:28.681Z,53.83
2017-03-30T08:25:28.691Z,52.87
2017-03-30T08:26:28.399Z,53.64
2017-03-30T08:27:28.735Z,53.48
2017-03-30T08:28:28.756Z,53.48
2017-03-30T08:29:28.776Z,53.09
2017-03-30T08:30:28.795Z,52.71
2017-03-30T08:31:28.812Z,53.09
2017-03-30T08:32:28.832Z,52.81
2017-03-30T08:33:28.855Z,53
2017-03-30T08:34:28.883Z,53.48
2017-03-30T08:35:28.895Z,53
2017-03-30T08:36:29.029Z,53.28
2017-03-30T08:37:28.936Z,52.81
2017-03-30T08:38:28.953Z,53
2017-03-30T08:39:29.011Z,53.09
2017-03-30T08:40:29.019Z,52.91
2017-03-30T08:41:28.701Z,52.62
2017-03-30T08:42:29.037Z,52.62
2017-03-30T08:43:29.172Z,52.81
2017-03-30T08:44:29.180Z,52.62
2017-03-30T08:45:29.189Z,52.23
2017-03-30T08:46:29.225Z,52.33
2017-03-30T08:47:29.234Z,52.33
2017-03-30T08:48:29.231Z,52.33
2017-03-30T08:49:29.239Z,52.36
2017-03-30T08:50:29.249Z,52.33
2017-03-30T08:51:29.297Z,51.85
2017-03-30T08:52:29.294Z,52.33
2017-03-30T08:53:29.309Z,52.23
2017-03-30T08:54:29.314Z,52.42
2017-03-30T08:55:29.022Z,52.33
2017-03-30T08:56:29.346Z,52.07
2017-03-30T08:57:29.364Z,52.16
2017-03-30T08:58:29.358Z,52.16
2017-03-30T08:59:29.388Z,52.07
2017-03-30T09:00:29.398Z,51.68
2017-03-30T09:01:29.420Z,51.78
2017-03-30T09:02:29.440Z,51.68
2017-03-30T09:03:29.462Z,52.07
2017-03-30T09:04:29.492Z,51.87
2017-03-30T09:05:29.500Z,51.68
2017-03-30T09:06:29.519Z,52.16
2017-03-30T09:07:29.542Z,51.87
2017-03-30T09:08:29.307Z,51.87
2017-03-30T09:09:29.317Z,51.68
2017-03-30T09:10:29.606Z,51.68
2017-03-30T09:11:29.626Z,51.49
2017-03-30T09:12:29.645Z,51.49
2017-03-30T09:13:29.664Z,51.49
2017-03-30T09:14:29.686Z,51.3
2017-03-30T09:15:29.703Z,51.1
2017-03-30T09:16:29.725Z,50.82
2017-03-30T09:17:29.754Z,51.1
2017-03-30T09:18:29.765Z,51.1
2017-03-30T09:19:29.790Z,51.04
2017-03-30T09:20:29.808Z,50.63
2017-03-30T09:21:29.833Z,50.75
2017-03-30T09:22:29.855Z,51.04
2017-03-30T09:23:29.871Z,51.14
2017-03-30T09:24:29.890Z,51.23
2017-03-30T09:25:29.916Z,50.84
2017-03-30T09:26:29.939Z,50.56
2017-03-30T09:27:29.957Z,50.37
2017-03-30T09:28:29.974Z,50.56
2017-03-30T09:29:29.682Z,50.84
2017-03-30T09:30:30.119Z,50.75
2017-03-30T09:31:30.128Z,50.08
2017-03-30T09:32:30.149Z,50.37
2017-03-30T09:33:29.765Z,50.27
2017-03-30T09:34:30.166Z,50.08
2017-03-30T09:35:30.174Z,49.98
2017-03-30T09:36:30.184Z,49.98
2017-03-30T09:37:30.187Z,50.01
2017-03-30T09:38:30.268Z,49.72
2017-03-30T09:39:29.940Z,49.82
2017-03-30T09:40:30.260Z,49.43
2017-03-30T09:41:30.248Z,49.82
2017-03-30T09:42:30.264Z,49.43
2017-03-30T09:43:30.333Z,49.52
2017-03-30T09:44:30.309Z,50.01
2017-03-30T09:45:30.331Z,49.82
2017-03-30T09:46:30.349Z,49.82
2017-03-30T09:47:30.372Z,49.43
2017-03-30T09:48:30.393Z,49.52
2017-03-30T09:49:30.413Z,49.15
2017-03-30T09:50:30.433Z,49.82
2017-03-30T09:51:30.456Z,50.2
2017-03-30T09:52:30.225Z,49.33
2017-03-30T09:53:30.504Z,49.24
2017-03-30T09:54:30.519Z,49.24
2017-03-30T09:55:30.541Z,49.43
2017-03-30T09:56:30.570Z,49.05
2017-03-30T09:57:30.582Z,49.43
2017-03-30T09:58:30.604Z,49.33
2017-03-30T09:59:30.625Z,49.43
2017-03-30T10:00:30.645Z,49.62
2017-03-30T10:01:30.673Z,49.62
2017-03-30T10:02:30.687Z,49.43
2017-03-30T10:03:30.718Z,48.85
2017-03-30T10:04:30.732Z,49.43
2017-03-30T10:05:30.754Z,49.52
2017-03-30T10:06:30.775Z,50.39
2017-03-30T10:07:30.793Z,49.82
2017-03-30T10:08:30.818Z,49.62
2017-03-30T10:09:30.835Z,49.52
2017-03-30T10:10:30.856Z,50.01
2017-03-30T10:11:30.898Z,49.15
2017-03-30T10:12:30.900Z,49.52
2017-03-30T10:13:31.126Z,49.05
2017-03-30T10:14:30.942Z,49.05
2017-03-30T10:15:30.961Z,49.05
2017-03-30T10:16:30.986Z,48.97
2017-03-30T10:17:31.008Z,49.07
2017-03-30T10:18:30.717Z,48.88
2017-03-30T10:19:31.051Z,48.69
2017-03-30T10:20:31.073Z,48.4
2017-03-30T10:21:30.780Z,48.4
2017-03-30T10:22:31.117Z,48.49
2017-03-30T10:23:31.136Z,48.21
2017-03-30T10:24:31.158Z,47.85
2017-03-30T10:25:31.180Z,48.52
2017-03-30T10:26:31.202Z,48.4
2017-03-30T10:27:31.221Z,48.13
2017-03-30T10:28:31.242Z,47.85
2017-03-30T10:29:31.265Z,47.75
2017-03-30T10:30:31.284Z,47.66
2017-03-30T10:31:31.310Z,47.46
2017-03-30T10:32:31.330Z,47.36
2017-03-30T10:33:31.352Z,47.36
2017-03-30T10:34:31.374Z,47.27
2017-03-30T10:35:31.394Z,47.46
2017-03-30T10:36:31.418Z,47.1
2017-03-30T10:37:31.439Z,46.81
2017-03-30T10:38:31.459Z,47
2017-03-30T10:39:31.479Z,47
2017-03-30T10:40:31.505Z,46.62
2017-03-30T10:41:31.544Z,47
2017-03-30T10:42:31.548Z,46.62
2017-03-30T10:43:31.570Z,46.62
2017-03-30T10:44:31.585Z,47
2017-03-30T10:45:31.320Z,46.81
2017-03-30T10:46:31.324Z,46.53
2017-03-30T10:47:31.658Z,46.53
2017-03-30T10:48:31.681Z,46.33
2017-03-30T10:49:31.700Z,46.23
2017-03-30T10:50:31.721Z,46.33
2017-03-30T10:51:31.744Z,46.04
2017-03-30T10:52:31.767Z,46.04
2017-03-30T10:53:31.788Z,46.23
2017-03-30T10:54:31.929Z,46.04
2017-03-30T10:55:31.939Z,46.16
2017-03-30T10:56:31.947Z,45.78
2017-03-30T10:57:31.979Z,45.78
2017-03-30T10:58:31.979Z,45.78
2017-03-30T10:59:31.918Z,45.59
2017-03-30T11:00:31.997Z,45.68
2017-03-30T11:01:32.005Z,45.39
2017-03-30T11:02:32.023Z,45.49
2017-03-30T11:03:32.023Z,45.42
2017-03-30T11:04:32.032Z,45.03
2017-03-30T11:05:32.165Z,44.93
2017-03-30T11:06:32.100Z,44.55
2017-03-30T11:07:32.101Z,44.55
2017-03-30T11:08:32.239Z,44.35
2017-03-30T11:09:32.235Z,44.38
2017-03-30T11:10:31.965Z,44.19
2017-03-30T11:11:32.425Z,43.8
2017-03-30T11:12:32.422Z,44.09
2017-03-30T11:13:32.437Z,43.9
2017-03-30T11:14:32.444Z,43.9
2017-03-30T11:15:32.454Z,43.71
2017-03-30T11:16:32.465Z,43.51
2017-03-30T11:17:32.466Z,43.71
2017-03-30T11:18:32.477Z,43.61
2017-03-30T11:19:32.556Z,43.41
2017-03-30T11:20:32.529Z,43.61
2017-03-30T11:21:32.529Z,43.71
2017-03-30T11:22:32.536Z,43.23
2017-03-30T11:23:32.546Z,43.9
2017-03-30T11:24:32.616Z,43.51
2017-03-30T11:25:32.606Z,43.61
2017-03-30T11:26:32.600Z,43.23
2017-03-30T11:27:32.635Z,43.23
2017-03-30T11:28:32.641Z,43.61
2017-03-30T11:29:32.698Z,43.23
2017-03-30T11:30:32.661Z,43.51
2017-03-30T11:31:32.658Z,43.51
2017-03-30T11:32:32.662Z,43.61
2017-03-30T11:33:32.687Z,43.41
2017-03-30T11:34:32.710Z,43.51
2017-03-30T11:35:32.738Z,43.51
2017-03-30T11:36:32.763Z,43.13
2017-03-30T11:37:32.780Z,43.92
2017-03-30T11:38:32.804Z,43.73
2017-03-30T11:39:32.823Z,44.69
2017-03-30T11:40:32.849Z,44.02
2017-03-30T11:41:32.869Z,43.63
2017-03-30T11:42:32.898Z,43.24
2017-03-30T11:43:32.916Z,43.34
2017-03-30T11:44:32.680Z,43.92
2017-03-30T11:45:32.968Z,43.73
2017-03-30T11:46:32.993Z,43.46
2017-03-30T11:47:33.025Z,43.54
2017-03-30T11:48:33.032Z,43.55
2017-03-30T11:49:33.064Z,43.46
2017-03-30T11:50:33.080Z,43.27
2017-03-30T11:51:33.107Z,43.46
2017-03-30T11:52:33.131Z,43.37
2017-03-30T11:53:33.155Z,42.79
2017-03-30T11:54:33.384Z,43.37
2017-03-30T11:55:33.399Z,43.58
2017-03-30T11:56:33.407Z,43.58
2017-03-30T11:57:33.099Z,43.58
2017-03-30T11:58:33.414Z,43.58
2017-03-30T11:59:33.625Z,43.29
2017-03-30T12:00:33.473Z,42.8
2017-03-30T12:01:33.470Z,43.1
2017-03-30T12:02:33.481Z,42.61
2017-03-30T12:03:33.491Z,42.73
2017-03-30T12:04:33.536Z,42.63
2017-03-30T12:05:33.508Z,42.54
2017-03-30T12:06:33.547Z,42.25
2017-03-30T12:07:33.581Z,42.25
2017-03-30T12:08:33.303Z,41.77
2017-03-30T12:09:33.587Z,41.67
2017-03-30T12:10:33.601Z,41.57
2017-03-30T12:11:33.607Z,41.5
2017-03-30T12:12:33.602Z,41.2
2017-03-30T12:13:33.617Z,41.3
2017-03-30T12:14:33.673Z,40.82
2017-03-30T12:15:33.665Z,41.3
2017-03-30T12:16:33.687Z,41.2
2017-03-30T12:17:33.713Z,41.4
2017-03-30T12:18:33.734Z,40.92
2017-03-30T12:19:33.757Z,41.02
2017-03-30T12:20:33.784Z,41.02
2017-03-30T12:21:33.806Z,40.65
2017-03-30T12:22:33.832Z,40.82
2017-03-30T12:23:33.856Z,40.65
2017-03-30T12:24:33.878Z,40.75
2017-03-30T12:25:33.903Z,40.55
2017-03-30T12:26:33.927Z,40.55
2017-03-30T12:27:33.954Z,40.65
2017-03-30T12:28:33.976Z,41.03
2017-03-30T12:29:33.997Z,40.75
2017-03-30T12:30:34.023Z,41.33
2017-03-30T12:31:34.044Z,41.23
2017-03-30T12:32:34.073Z,41.35
2017-03-30T12:33:34.096Z,41.15
2017-03-30T12:34:34.123Z,41.05
2017-03-30T12:35:34.138Z,41.15
2017-03-30T12:36:34.166Z,41.05
2017-03-30T12:37:34.191Z,40.57
2017-03-30T12:38:34.218Z,40.67
2017-03-30T12:39:34.239Z,40.28
2017-03-30T12:40:34.263Z,40.38
2017-03-30T12:41:34.290Z,40.38
2017-03-30T12:42:34.314Z,40.5
2017-03-30T12:43:34.334Z,40.5
2017-03-30T12:44:34.358Z,40.11
2017-03-30T12:45:34.070Z,40.01
2017-03-30T12:46:34.408Z,40.3
2017-03-30T12:47:34.435Z,40.4
2017-03-30T12:48:34.145Z,40.78
2017-03-30T12:49:34.482Z,40.71
2017-03-30T12:50:34.510Z,40.4
2017-03-30T12:51:34.531Z,39.74
2017-03-30T12:52:34.557Z,39.64
2017-03-30T12:53:34.583Z,39.74
2017-03-30T12:54:34.606Z,39.55
2017-03-30T12:55:34.633Z,39.74